createdAt,value
2017-02-15T00:00:32.122Z,88.93
2017-02-15T00:01:12.765Z,89.03
2017-02-15T00:01:53.420Z,89.03
2017-02-15T00:02:34.077Z,89.03
2017-02-15T00:03:14.740Z,88.93
2017-02-15T00:03:55.442Z,88.93
2017-02-15T00:04:36.022Z,88.93
2017-02-15T00:05:16.689Z,88.93
2017-02-15T00:05:57.355Z,88.84
2017-02-15T00:06:37.992Z,88.84
2017-02-15T00:07:18.659Z,88.93
2017-02-15T00:07:59.298Z,88.84
2017-02-15T00:08:39.947Z,88.93
2017-02-15T00:09:20.607Z,89.03
2017-02-15T00:10:01.269Z,89.03
2017-02-15T00:10:41.923Z,88.84
2017-02-15T00:11:22.574Z,88.84
2017-02-15T00:12:03.214Z,88.7
2017-02-15T00:12:43.866Z,88.84
2017-02-15T00:13:24.517Z,88.84
2017-02-15T00:14:05.179Z,89.4
2017-02-15T00:14:45.825Z,89.03
2017-02-15T00:15:26.492Z,89.03
2017-02-15T00:16:07.129Z,89.12
2017-02-15T00:16:47.765Z,89.17
2017-02-15T00:17:28.352Z,89.22
2017-02-15T00:18:08.997Z,89.17
2017-02-15T00:18:49.624Z,89.5
2017-02-15T00:19:30.201Z,89.07
2017-02-15T00:20:10.854Z,89.54
2017-02-15T00:20:51.487Z,89.69
2017-02-15T00:21:32.142Z,89.45
2017-02-15T00:22:12.798Z,89.45
2017-02-15T00:22:53.444Z,89.54
2017-02-15T00:23:34.097Z,89.45
2017-02-15T00:24:14.735Z,89.17
2017-02-15T00:24:55.398Z,89.64
2017-02-15T00:25:36.059Z,89.26
2017-02-15T00:26:16.611Z,89.26
2017-02-15T00:26:57.288Z,89.45
2017-02-15T00:27:37.900Z,89.45
2017-02-15T00:28:18.499Z,89.54
2017-02-15T00:28:59.137Z,89.26
2017-02-15T00:29:39.778Z,89.26
2017-02-15T00:30:20.341Z,89.54
2017-02-15T00:31:00.993Z,89.64
2017-02-15T00:31:41.607Z,89.45
2017-02-15T00:32:22.187Z,89.64
2017-02-15T00:33:02.848Z,89.45
2017-02-15T00:33:43.473Z,89.26
2017-02-15T00:34:24.045Z,89.36
2017-02-15T00:35:04.689Z,89.45
2017-02-15T00:35:45.328Z,89.26
2017-02-15T00:36:25.879Z,89.26
2017-02-15T00:37:06.574Z,89.26
2017-02-15T00:37:47.215Z,89.36
2017-02-15T00:38:27.882Z,89.17
2017-02-15T00:39:08.524Z,89.36
2017-02-15T00:39:51.120Z,89.26
2017-02-15T00:40:31.775Z,89.26
2017-02-15T00:41:12.411Z,89.83
2017-02-15T00:41:53.063Z,89.54
2017-02-15T00:42:33.734Z,89.64
2017-02-15T00:43:14.406Z,89.45
2017-02-15T00:43:55.049Z,89.36
2017-02-15T00:44:35.716Z,89.36
2017-02-15T00:45:16.413Z,89.54
2017-02-15T00:45:57.106Z,89.26
2017-02-15T00:46:37.732Z,89.45
2017-02-15T00:47:18.401Z,90.3
2017-02-15T00:47:59.060Z,90.02
2017-02-15T00:48:39.715Z,90.21
2017-02-15T00:49:20.362Z,90.21
2017-02-15T00:50:01.019Z,89.92
2017-02-15T00:50:41.673Z,90.02
2017-02-15T00:51:22.331Z,90.21
2017-02-15T00:52:02.978Z,90.21
2017-02-15T00:52:43.640Z,90.21
2017-02-15T00:53:24.290Z,90.21
2017-02-15T00:54:04.933Z,90.21
2017-02-15T00:54:45.592Z,90.02
2017-02-15T00:55:26.239Z,90.02
2017-02-15T00:56:06.888Z,89.92
2017-02-15T00:56:47.529Z,90.21
2017-02-15T00:57:28.098Z,90.02
2017-02-15T00:58:08.739Z,90.02
2017-02-15T00:58:49.392Z,90.21
2017-02-15T00:59:29.952Z,90.21
2017-02-15T01:00:10.601Z,90.21
2017-02-15T01:00:51.239Z,90.21
2017-02-15T01:01:31.814Z,90.11
2017-02-15T01:02:12.463Z,90.02
2017-02-15T01:02:53.115Z,90.02
2017-02-15T01:03:33.805Z,89.92
2017-02-15T01:04:14.427Z,90.02
2017-02-15T01:04:55.080Z,89.92
2017-02-15T01:05:35.727Z,89.92
2017-02-15T01:06:16.380Z,89.92
2017-02-15T01:06:57.036Z,90.21
2017-02-15T01:07:37.685Z,90.21
2017-02-15T01:08:18.331Z,89.92
2017-02-15T01:08:58.991Z,90.11
2017-02-15T01:09:39.644Z,90.02
2017-02-15T01:10:20.298Z,90.11
2017-02-15T01:11:00.978Z,89.83
2017-02-15T01:11:41.593Z,90.11
2017-02-15T01:12:22.256Z,90.02
2017-02-15T01:13:02.907Z,90.21
2017-02-15T01:13:43.563Z,90.11
2017-02-15T01:14:24.205Z,90.21
2017-02-15T01:15:05.788Z,90.02
2017-02-15T01:15:46.417Z,90.3
2017-02-15T01:16:26.997Z,89.92
2017-02-15T01:17:07.637Z,89.73
2017-02-15T01:17:48.229Z,89.83
2017-02-15T01:18:28.827Z,89.83
2017-02-15T01:19:09.453Z,90.11
2017-02-15T01:19:50.042Z,89.92
2017-02-15T01:20:30.643Z,90.21
2017-02-15T01:21:11.347Z,89.73
2017-02-15T01:21:51.919Z,90.02
2017-02-15T01:22:32.558Z,90.02
2017-02-15T01:23:13.206Z,90.49
2017-02-15T01:23:53.867Z,90.3
2017-02-15T01:24:34.531Z,90.49
2017-02-15T01:25:15.199Z,90.68
2017-02-15T01:25:55.827Z,90.21
2017-02-15T01:26:36.467Z,90.49
2017-02-15T01:27:17.122Z,90.3
2017-02-15T01:27:57.785Z,90.21
2017-02-15T01:28:38.439Z,90.3
2017-02-15T01:29:19.093Z,90.3
2017-02-15T01:30:00.755Z,90.49
2017-02-15T01:30:41.420Z,90.49
2017-02-15T01:31:22.073Z,90.3
2017-02-15T01:32:02.716Z,90.3
2017-02-15T01:32:43.366Z,90.3
2017-02-15T01:33:24.019Z,90.4
2017-02-15T01:34:04.674Z,90.87
2017-02-15T01:34:45.341Z,90.59
2017-02-15T01:35:25.989Z,90.68
2017-02-15T01:36:06.634Z,90.49
2017-02-15T01:36:47.278Z,90.02
2017-02-15T01:37:27.848Z,90.49
2017-02-15T01:38:08.501Z,90.4
2017-02-15T01:38:49.231Z,90.68
2017-02-15T01:39:29.792Z,90.4
2017-02-15T01:40:10.458Z,90.68
2017-02-15T01:40:51.116Z,90.59
2017-02-15T01:41:31.649Z,90.59
2017-02-15T01:42:12.312Z,90.68
2017-02-15T01:42:52.955Z,90.59
2017-02-15T01:43:33.620Z,90.49
2017-02-15T01:44:14.265Z,90.3
2017-02-15T01:44:54.917Z,90.77
2017-02-15T01:45:35.569Z,90.59
2017-02-15T01:46:17.247Z,90.49
2017-02-15T01:46:57.896Z,90.49
2017-02-15T01:47:38.560Z,90.49
2017-02-15T01:48:19.203Z,90.4
2017-02-15T01:48:59.851Z,90.59
2017-02-15T01:49:40.506Z,90.3
2017-02-15T01:50:21.171Z,90.21
2017-02-15T01:51:01.819Z,90.59
2017-02-15T01:51:42.479Z,90.4
2017-02-15T01:52:23.068Z,90.4
2017-02-15T01:53:03.657Z,90.3
2017-02-15T01:53:44.222Z,90.4
2017-02-15T01:54:24.886Z,90.3
2017-02-15T01:55:05.479Z,90.4
2017-02-15T01:55:46.062Z,90.49
2017-02-15T01:56:26.637Z,90.77
2017-02-15T01:57:07.279Z,90.4
2017-02-15T01:57:47.881Z,90.59
2017-02-15T01:58:28.471Z,90.49
2017-02-15T01:59:09.049Z,90.77
2017-02-15T01:59:49.675Z,90.59
2017-02-15T02:00:30.272Z,90.49
2017-02-15T02:01:10.880Z,90.11
2017-02-15T02:01:51.466Z,90.11
2017-02-15T02:02:32.095Z,90.02
2017-02-15T02:03:12.681Z,90.3
2017-02-15T02:03:53.387Z,90.21
2017-02-15T02:04:33.964Z,89.92
2017-02-15T02:05:14.604Z,90.49
2017-02-15T02:05:55.195Z,90.21
2017-02-15T02:06:35.763Z,90.3
2017-02-15T02:07:16.375Z,90.68
2017-02-15T02:07:56.998Z,89.92
2017-02-15T02:08:37.556Z,89.92
2017-02-15T02:09:18.211Z,90.21
2017-02-15T02:09:58.856Z,90.02
2017-02-15T02:10:39.412Z,90.21
2017-02-15T02:11:20.099Z,90.11
2017-02-15T02:12:00.710Z,90.3
2017-02-15T02:12:41.364Z,90.21
2017-02-15T02:13:22.017Z,90.49
2017-02-15T02:14:02.670Z,90.49
2017-02-15T02:14:43.323Z,90.3
2017-02-15T02:15:23.977Z,90.49
2017-02-15T02:16:04.628Z,90.49
2017-02-15T02:16:45.203Z,90.49
2017-02-15T02:17:25.838Z,90.4
2017-02-15T02:18:06.448Z,90.49
2017-02-15T02:18:47.139Z,90.4
2017-02-15T02:19:27.696Z,90.4
2017-02-15T02:20:08.367Z,90.77
2017-02-15T02:20:49.017Z,90.59
2017-02-15T02:21:29.595Z,90.49
2017-02-15T02:22:10.262Z,90.49
2017-02-15T02:22:50.901Z,90.77
2017-02-15T02:23:31.562Z,90.68
2017-02-15T02:24:12.208Z,90.3
2017-02-15T02:24:52.854Z,90.96
2017-02-15T02:25:33.528Z,90.77
2017-02-15T02:26:14.186Z,90.68
2017-02-15T02:26:54.870Z,90.49
2017-02-15T02:27:35.427Z,90.59
2017-02-15T02:28:16.099Z,90.68
2017-02-15T02:28:56.784Z,91.06
2017-02-15T02:29:37.385Z,91.06
2017-02-15T02:30:17.943Z,90.68
2017-02-15T02:30:58.605Z,91.06
2017-02-15T02:31:39.180Z,90.59
2017-02-15T02:32:19.791Z,90.68
2017-02-15T02:33:00.359Z,90.87
2017-02-15T02:33:41.014Z,91.06
2017-02-15T02:34:21.598Z,91.06
2017-02-15T02:35:02.198Z,91.06
2017-02-15T02:35:42.748Z,91.06
2017-02-15T02:36:23.403Z,90.87
2017-02-15T02:37:03.992Z,91.06
2017-02-15T02:37:44.604Z,91.06
2017-02-15T02:38:25.162Z,91.06
2017-02-15T02:39:05.818Z,91.06
2017-02-15T02:39:46.415Z,91.06
2017-02-15T02:40:27.001Z,91.06
2017-02-15T02:41:07.563Z,90.96
2017-02-15T02:41:48.234Z,90.87
2017-02-15T02:42:28.819Z,90.87
2017-02-15T02:43:09.415Z,90.87
2017-02-15T02:43:49.972Z,90.96
2017-02-15T02:44:30.639Z,90.68
2017-02-15T02:45:11.226Z,91.06
2017-02-15T02:45:51.822Z,91.25
2017-02-15T02:46:32.386Z,90.77
2017-02-15T02:47:13.042Z,90.96
2017-02-15T02:47:53.662Z,91.34
2017-02-15T02:48:34.286Z,90.96
2017-02-15T02:49:14.941Z,91.15
2017-02-15T02:49:55.659Z,91.15
2017-02-15T02:50:36.272Z,91.15
2017-02-15T02:51:16.898Z,91.15
2017-02-15T02:51:57.600Z,91.15
2017-02-15T02:52:38.229Z,91.15
2017-02-15T02:53:18.883Z,91.15
2017-02-15T02:53:59.533Z,91.15
2017-02-15T02:54:40.189Z,91.06
2017-02-15T02:55:20.825Z,91.06
2017-02-15T02:56:01.490Z,91.15
2017-02-15T02:56:42.146Z,91.34
2017-02-15T02:57:22.844Z,90.68
2017-02-15T02:58:03.439Z,91.15
2017-02-15T02:58:43.981Z,91.15
2017-02-15T02:59:24.661Z,90.87
2017-02-15T03:00:05.333Z,90.68
2017-02-15T03:00:46.957Z,90.87
2017-02-15T03:01:27.514Z,90.68
2017-02-15T03:02:08.150Z,90.87
2017-02-15T03:02:48.804Z,90.96
2017-02-15T03:03:29.395Z,90.96
2017-02-15T03:04:10.052Z,90.87
2017-02-15T03:04:50.663Z,90.96
2017-02-15T03:05:31.227Z,90.96
2017-02-15T03:06:11.863Z,90.87
2017-02-15T03:06:52.517Z,90.96
2017-02-15T03:07:33.074Z,90.96
2017-02-15T03:08:13.735Z,90.96
2017-02-15T03:08:54.383Z,90.87
2017-02-15T03:09:34.953Z,90.87
2017-02-15T03:10:15.602Z,90.77
2017-02-15T03:10:56.246Z,91.15
2017-02-15T03:11:36.816Z,91.15
2017-02-15T03:12:17.449Z,91.34
2017-02-15T03:12:58.066Z,91.25
2017-02-15T03:13:38.648Z,91.25
2017-02-15T03:14:19.218Z,90.96
2017-02-15T03:14:59.859Z,91.25
2017-02-15T03:15:40.468Z,91.25
2017-02-15T03:16:21.035Z,91.34
2017-02-15T03:17:01.697Z,91.25
2017-02-15T03:17:42.364Z,91.25
2017-02-15T03:18:22.997Z,91.15
2017-02-15T03:19:04.595Z,91.06
2017-02-15T03:19:45.245Z,91.06
2017-02-15T03:20:25.895Z,90.96
2017-02-15T03:21:06.547Z,91.34
2017-02-15T03:21:47.096Z,91.25
2017-02-15T03:22:27.769Z,91.15
2017-02-15T03:23:08.405Z,91.15
2017-02-15T03:23:48.969Z,91.82
2017-02-15T03:24:29.624Z,91.44
2017-02-15T03:25:10.259Z,91.34
2017-02-15T03:25:50.871Z,91.34
2017-02-15T03:26:31.481Z,91.34
2017-02-15T03:27:12.118Z,91.53
2017-02-15T03:27:52.664Z,91.53
2017-02-15T03:28:33.359Z,91.53
2017-02-15T03:29:14.031Z,91.53
2017-02-15T03:29:54.625Z,91.25
2017-02-15T03:30:35.187Z,91.72
2017-02-15T03:31:15.850Z,91.34
2017-02-15T03:31:56.430Z,91.34
2017-02-15T03:32:37.035Z,91.34
2017-02-15T03:33:17.625Z,91.25
2017-02-15T03:33:58.251Z,91.34
2017-02-15T03:34:38.835Z,91.82
2017-02-15T03:35:19.438Z,91.63
2017-02-15T03:36:00.009Z,91.34
2017-02-15T03:36:40.662Z,91.34
2017-02-15T03:37:21.323Z,91.82
2017-02-15T03:38:01.982Z,91.44
2017-02-15T03:38:42.621Z,91.91
2017-02-15T03:39:23.270Z,91.91
2017-02-15T03:40:03.915Z,91.82
2017-02-15T03:40:44.591Z,91.53
2017-02-15T03:41:25.221Z,91.34
2017-02-15T03:42:06.802Z,91.53
2017-02-15T03:42:47.468Z,91.53
2017-02-15T03:43:28.122Z,91.63
2017-02-15T03:44:08.773Z,91.63
2017-02-15T03:44:49.420Z,91.44
2017-02-15T03:45:30.072Z,91.63
2017-02-15T03:46:11.751Z,91.25
2017-02-15T03:46:53.420Z,91.25
2017-02-15T03:47:35.040Z,91.15
2017-02-15T03:48:15.629Z,92.1
2017-02-15T03:48:56.212Z,92.05
2017-02-15T03:49:36.852Z,92.1
2017-02-15T03:50:17.550Z,91.77
2017-02-15T03:50:58.143Z,91.67
2017-02-15T03:51:38.706Z,91.86
2017-02-15T03:52:19.366Z,91.67
2017-02-15T03:52:59.949Z,91.96
2017-02-15T03:53:40.553Z,91.86
2017-02-15T03:54:21.143Z,91.58
2017-02-15T03:55:01.790Z,91.67
2017-02-15T03:55:42.463Z,91.67
2017-02-15T03:56:23.061Z,91.77
2017-02-15T03:57:03.712Z,91.67
2017-02-15T03:57:44.375Z,91.96
2017-02-15T03:58:25.022Z,91.96
2017-02-15T03:59:05.625Z,91.96
2017-02-15T03:59:46.260Z,91.86
2017-02-15T04:00:26.921Z,91.86
2017-02-15T04:01:07.564Z,91.86
2017-02-15T04:01:48.114Z,91.86
2017-02-15T04:02:28.791Z,91.58
2017-02-15T04:03:09.437Z,91.58
2017-02-15T04:03:50.103Z,91.96
2017-02-15T04:04:30.766Z,91.58
2017-02-15T04:05:11.397Z,91.96
2017-02-15T04:05:52.044Z,91.86
2017-02-15T04:06:32.713Z,91.67
2017-02-15T04:07:13.294Z,91.77
2017-02-15T04:07:53.892Z,91.58
2017-02-15T04:08:34.454Z,91.77
2017-02-15T04:09:15.109Z,91.58
2017-02-15T04:09:55.715Z,91.58
2017-02-15T04:10:36.303Z,91.77
2017-02-15T04:11:16.865Z,91.77
2017-02-15T04:11:57.522Z,91.77
2017-02-15T04:12:39.140Z,91.77
2017-02-15T04:13:19.723Z,91.77
2017-02-15T04:14:00.300Z,91.77
2017-02-15T04:14:41.987Z,91.77
2017-02-15T04:15:22.570Z,91.77
2017-02-15T04:16:03.166Z,91.77
2017-02-15T04:16:43.744Z,92.05
2017-02-15T04:17:24.403Z,91.49
2017-02-15T04:18:05.032Z,91.49
2017-02-15T04:18:45.689Z,92.43
2017-02-15T04:19:26.348Z,92.43
2017-02-15T04:20:06.980Z,91.58
2017-02-15T04:20:47.654Z,92.43
2017-02-15T04:21:28.315Z,91.58
2017-02-15T04:22:08.961Z,92.24
2017-02-15T04:22:50.629Z,92.33
2017-02-15T04:23:31.294Z,92.05
2017-02-15T04:24:11.932Z,92.05
2017-02-15T04:24:52.585Z,92.14
2017-02-15T04:25:33.255Z,92.14
2017-02-15T04:26:13.897Z,92.43
2017-02-15T04:26:54.550Z,91.96
2017-02-15T04:27:35.174Z,92.05
2017-02-15T04:28:15.725Z,92.14
2017-02-15T04:28:56.317Z,92.14
2017-02-15T04:29:36.975Z,91.96
2017-02-15T04:30:17.522Z,91.77
2017-02-15T04:30:58.085Z,91.86
2017-02-15T04:31:38.728Z,92.05
2017-02-15T04:32:19.347Z,91.96
2017-02-15T04:32:59.889Z,92.14
2017-02-15T04:33:40.571Z,92.05
2017-02-15T04:34:21.231Z,91.86
2017-02-15T04:35:02.918Z,91.77
2017-02-15T04:35:43.546Z,91.96
2017-02-15T04:36:24.202Z,91.86
2017-02-15T04:37:04.795Z,91.96
2017-02-15T04:37:45.387Z,92.43
2017-02-15T04:38:25.953Z,92.43
2017-02-15T04:39:06.606Z,91.96
2017-02-15T04:39:47.190Z,92.43
2017-02-15T04:40:28.865Z,92.14
2017-02-15T04:41:09.440Z,92.24
2017-02-15T04:41:51.063Z,91.96
2017-02-15T04:42:31.716Z,92.24
2017-02-15T04:43:13.377Z,91.86
2017-02-15T04:43:54.059Z,92.43
2017-02-15T04:44:34.712Z,92.43
2017-02-15T04:45:15.349Z,92.14
2017-02-15T04:45:56.002Z,92.14
2017-02-15T04:46:36.649Z,92.05
2017-02-15T04:47:17.204Z,92.33
2017-02-15T04:47:57.889Z,92.05
2017-02-15T04:48:38.545Z,92.05
2017-02-15T04:49:19.182Z,92.33
2017-02-15T04:49:59.837Z,92.05
2017-02-15T04:50:40.479Z,92.14
2017-02-15T04:51:21.138Z,92.14
2017-02-15T04:52:01.786Z,92.24
2017-02-15T04:52:42.427Z,92.14
2017-02-15T04:53:24.042Z,91.96
2017-02-15T04:54:04.699Z,91.86
2017-02-15T04:54:45.366Z,92.43
2017-02-15T04:55:26.011Z,92.9
2017-02-15T04:56:06.664Z,92.71
2017-02-15T04:56:47.319Z,92.71
2017-02-15T04:57:27.879Z,92.8
2017-02-15T04:58:08.485Z,92.71
2017-02-15T04:58:49.107Z,92.8
2017-02-15T04:59:29.668Z,92.71
2017-02-15T05:00:10.341Z,92.8
2017-02-15T05:00:50.973Z,92.8
2017-02-15T05:01:31.532Z,92.71
2017-02-15T05:02:12.195Z,92.71
2017-02-15T05:02:52.851Z,92.71
2017-02-15T05:03:33.486Z,92.61
2017-02-15T05:04:14.136Z,92.71
2017-02-15T05:04:54.789Z,92.61
2017-02-15T05:05:35.462Z,92.61
2017-02-15T05:06:16.096Z,92.71
2017-02-15T05:06:56.750Z,92.61
2017-02-15T05:07:37.401Z,92.43
2017-02-15T05:08:18.053Z,92.43
2017-02-15T05:08:58.708Z,92.43
2017-02-15T05:09:39.354Z,92.8
2017-02-15T05:10:20.010Z,92.52
2017-02-15T05:11:00.664Z,92.52
2017-02-15T05:11:41.318Z,92.43
2017-02-15T05:12:21.895Z,92.61
2017-02-15T05:13:02.586Z,92.71
2017-02-15T05:13:43.182Z,92.8
2017-02-15T05:14:23.850Z,92.8
2017-02-15T05:15:04.505Z,92.8
2017-02-15T05:15:45.145Z,92.9
2017-02-15T05:16:25.790Z,92.8
2017-02-15T05:17:06.461Z,92.8
2017-02-15T05:17:47.158Z,92.33
2017-02-15T05:18:27.723Z,92.33
2017-02-15T05:19:08.361Z,92.8
2017-02-15T05:19:48.976Z,92.33
2017-02-15T05:20:29.629Z,92.9
2017-02-15T05:21:10.268Z,92.8
2017-02-15T05:21:50.916Z,92.8
2017-02-15T05:22:32.501Z,92.8
2017-02-15T05:23:13.157Z,92.8
2017-02-15T05:23:53.799Z,92.43
2017-02-15T05:24:34.459Z,92.8
2017-02-15T05:25:15.102Z,92.52
2017-02-15T05:25:55.766Z,92.61
2017-02-15T05:26:36.425Z,92.52
2017-02-15T05:27:17.077Z,92.61
2017-02-15T05:27:58.746Z,92.43
2017-02-15T05:28:39.402Z,92.52
2017-02-15T05:29:20.063Z,92.52
2017-02-15T05:30:01.732Z,92.52
2017-02-15T05:30:42.392Z,92.61
2017-02-15T05:31:23.032Z,92.71
2017-02-15T05:32:03.695Z,92.43
2017-02-15T05:32:44.275Z,92.43
2017-02-15T05:33:24.880Z,92.61
2017-02-15T05:34:05.444Z,92.61
2017-02-15T05:34:46.100Z,92.14
2017-02-15T05:35:26.740Z,92.8
2017-02-15T05:36:07.393Z,93.09
2017-02-15T05:36:48.060Z,92.8
2017-02-15T05:37:28.709Z,92.99
2017-02-15T05:38:09.362Z,92.9
2017-02-15T05:38:50.017Z,92.8
2017-02-15T05:39:30.690Z,92.99
2017-02-15T05:40:11.309Z,92.99
2017-02-15T05:40:51.972Z,92.99
2017-02-15T05:41:32.632Z,92.99
2017-02-15T05:42:13.275Z,92.99
2017-02-15T05:42:53.929Z,92.99
2017-02-15T05:43:34.582Z,92.99
2017-02-15T05:44:15.239Z,92.99
2017-02-15T05:44:55.889Z,92.99
2017-02-15T05:45:36.541Z,92.71
2017-02-15T05:46:17.194Z,92.99
2017-02-15T05:46:57.841Z,92.8
2017-02-15T05:47:38.506Z,92.9
2017-02-15T05:48:19.157Z,92.99
2017-02-15T05:48:59.975Z,92.9
2017-02-15T05:49:40.561Z,93.09
2017-02-15T05:50:21.204Z,93.09
2017-02-15T05:51:01.872Z,92.8
2017-02-15T05:51:42.532Z,92.71
2017-02-15T05:52:23.157Z,92.8
2017-02-15T05:53:03.769Z,92.8
2017-02-15T05:53:44.376Z,93.09
2017-02-15T05:54:25.018Z,92.71
2017-02-15T05:55:05.586Z,92.71
2017-02-15T05:55:46.237Z,92.61
2017-02-15T05:56:26.856Z,92.71
2017-02-15T05:57:07.423Z,92.8
2017-02-15T05:57:48.034Z,92.61
2017-02-15T05:58:28.624Z,92.9
2017-02-15T05:59:09.224Z,92.71
2017-02-15T05:59:49.787Z,92.99
2017-02-15T06:00:30.355Z,92.9
2017-02-15T06:01:12.013Z,92.9
2017-02-15T06:01:52.597Z,92.9
2017-02-15T06:02:33.152Z,92.8
2017-02-15T06:03:13.771Z,92.8
2017-02-15T06:03:54.401Z,92.61
2017-02-15T06:04:34.974Z,92.8
2017-02-15T06:05:15.625Z,93.56
2017-02-15T06:05:56.257Z,93.47
2017-02-15T06:06:36.841Z,93.47
2017-02-15T06:07:17.500Z,93.56
2017-02-15T06:07:58.167Z,93.47
2017-02-15T06:08:38.780Z,92.99
2017-02-15T06:09:19.455Z,93.56
2017-02-15T06:10:00.093Z,93.56
2017-02-15T06:10:40.762Z,93.18
2017-02-15T06:11:21.408Z,93.18
2017-02-15T06:12:02.059Z,93.18
2017-02-15T06:12:43.123Z,93.28
2017-02-15T06:13:23.696Z,93.09
2017-02-15T06:14:04.267Z,93.09
2017-02-15T06:14:44.921Z,93.75
2017-02-15T06:15:25.496Z,93.47
2017-02-15T06:16:06.171Z,93.56
2017-02-15T06:16:46.810Z,92.9
2017-02-15T06:17:27.460Z,93.18
2017-02-15T06:18:08.118Z,93.09
2017-02-15T06:18:48.771Z,92.99
2017-02-15T06:19:29.417Z,92.99
2017-02-15T06:20:10.073Z,92.99
2017-02-15T06:20:50.754Z,92.99
2017-02-15T06:21:31.396Z,93.37
2017-02-15T06:22:11.965Z,93.28
2017-02-15T06:22:52.607Z,93.37
2017-02-15T06:23:33.299Z,92.99
2017-02-15T06:24:13.997Z,92.99
2017-02-15T06:24:54.574Z,93.09
2017-02-15T06:25:35.219Z,92.99
2017-02-15T06:26:15.815Z,93.18
2017-02-15T06:26:56.410Z,92.9
2017-02-15T06:27:36.996Z,93.37
2017-02-15T06:28:17.651Z,93.56
2017-02-15T06:28:58.312Z,93.56
2017-02-15T06:29:38.959Z,93.56
2017-02-15T06:30:19.628Z,93.47
2017-02-15T06:31:00.268Z,93.66
2017-02-15T06:31:40.936Z,93.66
2017-02-15T06:32:21.534Z,93.75
2017-02-15T06:33:02.119Z,93.56
2017-02-15T06:33:42.749Z,93.18
2017-02-15T06:34:24.464Z,93.56
2017-02-15T06:35:05.068Z,93.37
2017-02-15T06:35:45.638Z,93.28
2017-02-15T06:36:26.296Z,93.28
2017-02-15T06:37:06.862Z,93.47
2017-02-15T06:37:47.530Z,93.18
2017-02-15T06:38:28.164Z,93.37
2017-02-15T06:39:08.826Z,93.28
2017-02-15T06:39:49.481Z,93.37
2017-02-15T06:40:30.133Z,93.47
2017-02-15T06:41:10.795Z,93.47
2017-02-15T06:41:51.386Z,93.56
2017-02-15T06:42:32.043Z,93.66
2017-02-15T06:43:12.687Z,93.56
2017-02-15T06:43:53.344Z,93.75
2017-02-15T06:44:33.993Z,93.47
2017-02-15T06:45:14.647Z,93.56
2017-02-15T06:45:55.296Z,93.47
2017-02-15T06:46:35.956Z,93.56
2017-02-15T06:47:16.531Z,93.28
2017-02-15T06:47:57.182Z,93.28
2017-02-15T06:48:37.812Z,93.28
2017-02-15T06:49:18.371Z,93.47
2017-02-15T06:49:59.023Z,93.47
2017-02-15T06:50:39.667Z,93.47
2017-02-15T06:51:20.240Z,93.47
2017-02-15T06:52:00.894Z,93.37
2017-02-15T06:52:41.540Z,93.18
2017-02-15T06:53:22.178Z,93.28
2017-02-15T06:54:02.825Z,93.47
2017-02-15T06:54:43.483Z,93.37
2017-02-15T06:55:24.135Z,93.18
2017-02-15T06:56:04.709Z,93.18
2017-02-15T06:56:45.365Z,93.37
2017-02-15T06:57:26.006Z,93.37
2017-02-15T06:58:06.641Z,94.13
2017-02-15T06:58:47.314Z,93.37
2017-02-15T06:59:27.990Z,93.75
2017-02-15T07:00:08.662Z,94.13
2017-02-15T07:00:49.313Z,93.37
2017-02-15T07:01:29.928Z,93.37
2017-02-15T07:02:10.803Z,93.37
2017-02-15T07:02:51.675Z,93.37
2017-02-15T07:03:32.376Z,93.37
2017-02-15T07:04:12.998Z,93.37
2017-02-15T07:04:53.642Z,93.37
2017-02-15T07:05:34.294Z,93.37
2017-02-15T07:06:14.889Z,93.28
2017-02-15T07:06:55.460Z,93.28
2017-02-15T07:07:36.116Z,93.28
2017-02-15T07:08:16.803Z,93.37
2017-02-15T07:08:57.405Z,93.47
2017-02-15T07:09:37.988Z,93.37
2017-02-15T07:10:18.565Z,93.28
2017-02-15T07:10:59.171Z,93.37
2017-02-15T07:11:40.785Z,93.28
2017-02-15T07:12:21.377Z,93.28
2017-02-15T07:13:02.034Z,93.37
2017-02-15T07:13:42.694Z,93.37
2017-02-15T07:14:23.336Z,93.75
2017-02-15T07:15:03.999Z,94.13
2017-02-15T07:15:44.647Z,93.8
2017-02-15T07:16:25.295Z,93.89
2017-02-15T07:17:05.950Z,94.37
2017-02-15T07:17:46.566Z,94.27
2017-02-15T07:18:27.193Z,93.89
2017-02-15T07:19:07.863Z,93.89
2017-02-15T07:19:48.468Z,93.09
2017-02-15T07:20:29.047Z,93.8
2017-02-15T07:21:09.689Z,93.42
2017-02-15T07:21:51.295Z,93.51
2017-02-15T07:22:32.928Z,93.8
2017-02-15T07:23:13.501Z,93.42
2017-02-15T07:23:54.136Z,93.51
2017-02-15T07:24:34.729Z,93.23
2017-02-15T07:25:15.325Z,93.32
2017-02-15T07:25:55.881Z,93.51
2017-02-15T07:26:37.466Z,93.32
2017-02-15T07:27:18.047Z,93.42
2017-02-15T07:27:58.698Z,93.42
2017-02-15T07:28:39.356Z,93.8
2017-02-15T07:29:20.014Z,93.42
2017-02-15T07:30:00.666Z,93.42
2017-02-15T07:30:41.319Z,93.42
2017-02-15T07:31:21.972Z,93.42
2017-02-15T07:32:07.325Z,93.32
2017-02-15T07:32:47.946Z,93.32
2017-02-15T07:33:28.604Z,93.32
2017-02-15T07:34:09.267Z,93.51
2017-02-15T07:34:49.903Z,93.32
2017-02-15T07:35:30.558Z,93.42
2017-02-15T07:36:11.221Z,93.42
2017-02-15T07:36:51.907Z,93.51
2017-02-15T07:37:32.514Z,93.42
2017-02-15T07:38:13.174Z,93.51
2017-02-15T07:38:53.825Z,93.51
2017-02-15T07:39:34.481Z,93.51
2017-02-15T07:40:15.133Z,93.32
2017-02-15T07:40:55.784Z,93.42
2017-02-15T07:41:36.440Z,93.42
2017-02-15T07:42:17.087Z,93.42
2017-02-15T07:42:57.753Z,93.51
2017-02-15T07:43:38.394Z,93.42
2017-02-15T07:44:19.042Z,93.51
2017-02-15T07:44:59.700Z,93.32
2017-02-15T07:45:40.421Z,93.42
2017-02-15T07:46:21.010Z,93.51
2017-02-15T07:47:01.700Z,93.51
2017-02-15T07:47:42.315Z,93.32
2017-02-15T07:48:22.982Z,93.32
2017-02-15T07:49:03.630Z,93.32
2017-02-15T07:49:44.260Z,93.32
2017-02-15T07:50:24.899Z,93.23
2017-02-15T07:51:05.576Z,93.7
2017-02-15T07:51:46.122Z,93.61
2017-02-15T07:52:26.790Z,93.32
2017-02-15T07:53:07.354Z,93.32
2017-02-15T07:53:47.983Z,93.32
2017-02-15T07:54:28.571Z,93.32
2017-02-15T07:55:11.229Z,93.32
2017-02-15T07:55:51.807Z,93.42
2017-02-15T07:56:32.427Z,93.32
2017-02-15T07:57:12.988Z,93.32
2017-02-15T07:57:53.630Z,93.23
2017-02-15T07:58:34.277Z,93.7
2017-02-15T07:59:14.950Z,93.51
2017-02-15T07:59:55.618Z,93.7
2017-02-15T08:00:36.252Z,93.61
2017-02-15T08:01:16.904Z,93.51
2017-02-15T08:01:57.550Z,93.61
2017-02-15T08:02:38.195Z,93.7
2017-02-15T08:03:19.845Z,93.51
2017-02-15T08:04:00.437Z,93.32
2017-02-15T08:04:41.123Z,93.42
2017-02-15T08:05:21.760Z,93.61
2017-02-15T08:06:02.416Z,93.75
2017-02-15T08:06:43.071Z,93.75
2017-02-15T08:07:23.703Z,93.75
2017-02-15T08:08:04.380Z,93.66
2017-02-15T08:08:45.006Z,92.99
2017-02-15T08:09:25.643Z,93.28
2017-02-15T08:10:06.325Z,93.28
2017-02-15T08:10:46.962Z,93.28
2017-02-15T08:11:27.618Z,93.18
2017-02-15T08:12:08.270Z,93.09
2017-02-15T08:12:48.923Z,93.18
2017-02-15T08:13:29.590Z,93.37
2017-02-15T08:14:11.265Z,93.37
2017-02-15T08:14:51.823Z,93.28
2017-02-15T08:15:32.477Z,93.47
2017-02-15T08:16:13.126Z,93.28
2017-02-15T08:16:53.798Z,93.37
2017-02-15T08:17:34.415Z,92.99
2017-02-15T08:18:15.055Z,93.09
2017-02-15T08:18:55.756Z,93.37
2017-02-15T08:19:36.372Z,93.18
2017-02-15T08:20:17.010Z,93.37
2017-02-15T08:20:57.698Z,93.28
2017-02-15T08:21:38.368Z,93.37
2017-02-15T08:22:18.972Z,93.18
2017-02-15T08:23:00.572Z,93.47
2017-02-15T08:23:41.210Z,93.47
2017-02-15T08:24:21.864Z,93.37
2017-02-15T08:25:02.526Z,93.37
2017-02-15T08:25:43.165Z,93.28
2017-02-15T08:26:23.822Z,93.28
2017-02-15T08:27:04.483Z,93.18
2017-02-15T08:27:45.130Z,93.56
2017-02-15T08:28:25.715Z,93.37
2017-02-15T08:29:06.330Z,92.9
2017-02-15T08:29:46.895Z,92.9
2017-02-15T08:30:27.555Z,92.71
2017-02-15T08:31:08.238Z,92.71
2017-02-15T08:31:48.796Z,92.71
2017-02-15T08:32:29.448Z,92.71
2017-02-15T08:33:10.103Z,92.8
2017-02-15T08:33:50.733Z,92.8
2017-02-15T08:34:32.325Z,92.9
2017-02-15T08:35:12.989Z,93.18
2017-02-15T08:35:53.631Z,92.71
2017-02-15T08:36:34.290Z,93.09
2017-02-15T08:37:14.949Z,93.04
2017-02-15T08:37:55.512Z,92.94
2017-02-15T08:38:36.081Z,93.23
2017-02-15T08:39:17.742Z,93.13
2017-02-15T08:39:58.306Z,93.13
2017-02-15T08:40:38.965Z,92.94
2017-02-15T08:41:19.597Z,92.66
2017-02-15T08:42:00.164Z,92.94
2017-02-15T08:42:40.819Z,92.85
2017-02-15T08:43:21.425Z,92.66
2017-02-15T08:44:03.036Z,92.76
2017-02-15T08:44:43.600Z,92.85
2017-02-15T08:45:24.267Z,92.47
2017-02-15T08:46:04.859Z,93.04